createdAt,value
2023-03-08T00:01:41.771Z,98433.28
2023-03-08T00:04:11.858Z,98409.81
2023-03-08T00:06:39.675Z,98425.81
2023-03-08T00:09:08.687Z,98428.22
2023-03-08T00:11:36.321Z,98436.41
2023-03-08T00:14:04.007Z,98441.00
2023-03-08T00:16:31.664Z,98437.94
2023-03-08T00:18:59.337Z,98431.28
2023-03-08T00:21:26.914Z,98440.19
2023-03-08T00:23:55.118Z,98440.91
2023-03-08T00:26:24.205Z,98445.66
2023-03-08T00:28:52.711Z,98437.88
2023-03-08T00:31:21.134Z,98441.31
2023-03-08T00:33:49.742Z,98435.81
2023-03-08T00:36:19.389Z,98430.81
2023-03-08T00:38:47.980Z,98438.19
2023-03-08T00:41:16.061Z,98430.41
2023-03-08T00:43:45.090Z,98424.16
2023-03-08T00:46:13.686Z,98428.44
2023-03-08T00:48:42.114Z,98398.31
2023-03-08T00:51:14.326Z,98418.38
2023-03-08T00:53:42.069Z,98411.31
2023-03-08T00:56:09.738Z,98412.47
2023-03-08T00:58:39.390Z,98427.69
2023-03-08T01:01:10.066Z,98406.25
2023-03-08T01:03:37.711Z,98416.38
2023-03-08T01:06:08.637Z,98417.50
2023-03-08T01:08:36.720Z,98408.53
2023-03-08T01:11:04.404Z,98400.69
2023-03-08T01:13:34.296Z,98394.50
2023-03-08T01:16:02.513Z,98398.72
2023-03-08T01:18:33.152Z,98399.09
2023-03-08T01:21:03.176Z,98400.69
2023-03-08T01:23:31.377Z,98417.03
2023-03-08T01:26:00.331Z,98412.78
2023-03-08T01:28:28.427Z,98403.72
2023-03-08T01:31:01.632Z,98406.47
2023-03-08T01:33:30.636Z,98399.06
2023-03-08T01:35:58.321Z,98391.25
2023-03-08T01:38:25.979Z,98395.13
2023-03-08T01:40:57.444Z,98383.88
2023-03-08T01:43:28.159Z,98381.88
2023-03-08T01:46:06.768Z,98377.69
2023-03-08T01:48:41.856Z,98371.81
2023-03-08T01:51:17.095Z,98372.16
2023-03-08T01:53:45.270Z,98370.97
2023-03-08T01:56:14.640Z,98372.06
2023-03-08T01:58:44.571Z,98363.91
2023-03-08T02:01:12.328Z,98365.03
2023-03-08T02:03:41.503Z,98362.59
2023-03-08T02:06:10.653Z,98358.00
2023-03-08T02:08:38.286Z,98371.66
2023-03-08T02:11:06.635Z,98366.59
2023-03-08T02:13:34.981Z,98360.38
2023-03-08T02:16:08.066Z,98362.72
2023-03-08T02:18:35.787Z,98349.84
2023-03-08T02:21:04.871Z,98347.09
2023-03-08T02:23:36.016Z,98346.72
2023-03-08T02:26:06.240Z,98348.22
2023-03-08T02:28:35.052Z,98342.44
2023-03-08T02:31:03.401Z,98334.59
2023-03-08T02:33:32.271Z,98332.28
2023-03-08T02:35:59.999Z,98322.91
2023-03-08T02:38:27.906Z,98326.94
2023-03-08T02:40:56.844Z,98324.81
2023-03-08T02:43:25.069Z,98318.28
2023-03-08T02:45:53.026Z,98321.38
2023-03-08T02:48:21.146Z,98310.50
2023-03-08T02:50:48.817Z,98316.72
2023-03-08T02:53:16.497Z,98214.72
2023-03-08T02:55:45.542Z,98316.25
2023-03-08T02:58:15.846Z,98308.09
2023-03-08T03:00:43.650Z,98306.19
2023-03-08T03:03:11.451Z,98308.91
2023-03-08T03:05:43.466Z,98289.78
2023-03-08T03:08:14.695Z,98303.84
2023-03-08T03:10:42.671Z,98295.63
2023-03-08T03:13:10.326Z,98281.97
2023-03-08T03:15:40.606Z,98242.50
2023-03-08T03:18:08.254Z,98283.88
2023-03-08T03:20:35.944Z,98272.19
2023-03-08T03:23:04.116Z,98271.47
2023-03-08T03:25:42.358Z,98259.69
2023-03-08T03:28:14.590Z,98260.13
2023-03-08T03:30:44.802Z,98267.13
2023-03-08T03:33:14.685Z,98262.06
2023-03-08T03:35:42.759Z,98266.31
2023-03-08T03:38:11.367Z,98261.25
2023-03-08T03:40:39.808Z,98263.59
2023-03-08T03:43:07.529Z,98261.63
2023-03-08T03:45:35.251Z,98263.59
2023-03-08T03:48:04.536Z,98265.16
2023-03-08T03:50:33.315Z,98264.59
2023-03-08T03:53:06.652Z,98254.88
2023-03-08T03:55:34.351Z,98260.66
2023-03-08T03:58:07.306Z,98257.47
2023-03-08T04:00:35.732Z,98274.91
2023-03-08T04:03:17.453Z,98263.31
2023-03-08T04:05:45.380Z,98259.75
2023-03-08T04:08:13.245Z,98243.38
2023-03-08T04:10:42.887Z,98253.94
2023-03-08T04:13:12.870Z,98244.25
2023-03-08T04:15:41.731Z,98243.16
2023-03-08T04:18:12.641Z,98242.75
2023-03-08T04:20:45.349Z,98250.13
2023-03-08T04:23:14.403Z,98232.13
2023-03-08T04:25:44.593Z,98236.50
2023-03-08T04:28:15.479Z,98244.72
2023-03-08T04:30:45.372Z,98239.66
2023-03-08T04:33:14.163Z,98247.00
2023-03-08T04:35:50.779Z,98243.13
2023-03-08T04:38:21.421Z,98228.44
2023-03-08T04:41:10.320Z,98229.97
2023-03-08T04:43:52.654Z,98217.22
2023-03-08T04:46:26.358Z,98206.69
2023-03-08T04:48:55.796Z,98212.13
2023-03-08T04:51:27.940Z,98189.53
2023-03-08T04:53:58.537Z,98211.00
2023-03-08T04:56:26.976Z,98209.06
2023-03-08T04:58:54.891Z,98200.78
2023-03-08T05:01:24.703Z,98193.34
2023-03-08T05:03:55.814Z,98193.00
2023-03-08T05:06:32.272Z,98191.44
2023-03-08T05:08:59.961Z,98188.75
2023-03-08T05:11:29.212Z,98191.50
2023-03-08T05:13:59.325Z,98178.97
2023-03-08T05:16:29.071Z,98183.00
2023-03-08T05:18:57.192Z,98181.81
2023-03-08T05:21:30.206Z,98176.31
2023-03-08T05:24:02.292Z,98187.22
2023-03-08T05:26:33.802Z,98190.66
2023-03-08T05:29:03.327Z,98197.22
2023-03-08T05:31:31.985Z,98204.53
2023-03-08T05:34:01.767Z,98195.66
2023-03-08T05:36:37.113Z,98195.97
2023-03-08T05:39:08.883Z,98184.25
2023-03-08T05:41:50.226Z,98187.13
2023-03-08T05:44:24.387Z,98145.78
2023-03-08T05:46:52.509Z,98147.75
2023-03-08T05:49:21.792Z,98166.50
2023-03-08T05:51:49.718Z,98161.81
2023-03-08T05:54:19.537Z,98153.28
2023-03-08T05:56:49.257Z,98163.81
2023-03-08T05:59:26.747Z,98153.72
2023-03-08T06:01:57.746Z,98151.34
2023-03-08T06:04:39.546Z,98145.53
2023-03-08T06:07:07.196Z,98143.56
2023-03-08T06:09:43.705Z,98138.53
2023-03-08T06:12:15.426Z,98138.09
2023-03-08T06:14:45.529Z,98141.25
2023-03-08T06:17:15.489Z,98114.03
2023-03-08T06:19:47.373Z,98126.56
2023-03-08T06:22:17.154Z,98117.94
2023-03-08T06:24:49.622Z,98114.41
2023-03-08T06:27:21.737Z,98117.19
2023-03-08T06:29:51.817Z,98114.00
2023-03-08T06:32:20.875Z,98110.97
2023-03-08T06:34:49.564Z,98101.28
2023-03-08T06:37:17.683Z,98103.16
2023-03-08T06:39:47.349Z,98098.94
2023-03-08T06:42:14.987Z,98109.41
2023-03-08T06:44:42.580Z,98104.69
2023-03-08T06:47:10.723Z,98114.81
2023-03-08T06:49:38.327Z,98103.94
2023-03-08T06:52:07.220Z,98098.09
2023-03-08T06:54:34.948Z,98089.91
2023-03-08T06:57:06.884Z,98095.41
2023-03-08T06:59:34.516Z,98086.50
2023-03-08T07:02:02.237Z,98083.41
2023-03-08T07:04:29.887Z,98083.44
2023-03-08T07:06:59.224Z,98072.56
2023-03-08T07:09:26.884Z,98078.78
2023-03-08T07:11:54.519Z,98063.97
2023-03-08T07:14:23.513Z,98058.91
2023-03-08T07:16:51.156Z,98056.56
2023-03-08T07:19:18.785Z,98046.09
2023-03-08T07:21:46.454Z,98052.69
2023-03-08T07:24:14.350Z,98045.63
2023-03-08T07:26:42.113Z,98050.75
2023-03-08T07:29:09.833Z,98046.00
2023-03-08T07:31:38.961Z,98045.53
2023-03-08T07:34:06.573Z,98042.72
2023-03-08T07:36:34.752Z,98050.00
2023-03-08T07:39:02.617Z,98030.25
2023-03-08T07:41:31.711Z,98023.41
2023-03-08T07:43:59.511Z,98015.53
2023-03-08T07:46:28.112Z,98008.16
2023-03-08T07:48:57.169Z,98006.78
2023-03-08T07:51:25.145Z,97990.44
2023-03-08T07:53:53.704Z,97986.25
2023-03-08T07:56:21.303Z,97989.34
2023-03-08T07:58:49.147Z,97988.72
2023-03-08T08:01:16.828Z,97990.50
2023-03-08T08:03:45.664Z,97985.78
2023-03-08T08:06:14.713Z,97980.91
2023-03-08T08:08:42.377Z,97974.72
2023-03-08T08:11:14.629Z,97968.66
2023-03-08T08:13:42.585Z,97962.47
2023-03-08T08:16:10.596Z,97952.59
2023-03-08T08:18:38.311Z,97945.00
2023-03-08T08:21:09.665Z,97949.25
2023-03-08T08:23:40.207Z,97934.06
2023-03-08T08:26:09.781Z,97916.56
2023-03-08T08:28:39.336Z,97923.28
2023-03-08T08:31:09.119Z,97911.28
2023-03-08T08:33:37.700Z,97894.56
2023-03-08T08:36:07.043Z,97886.78
2023-03-08T08:38:35.516Z,97883.41
2023-03-08T08:41:06.038Z,97874.28
2023-03-08T08:43:35.007Z,97873.91
2023-03-08T08:46:04.196Z,97822.88
2023-03-08T08:48:33.598Z,97863.44
2023-03-08T08:51:01.984Z,97846.75
2023-03-08T08:53:29.682Z,97849.44
2023-03-08T08:55:57.520Z,97833.59
2023-03-08T08:58:26.902Z,97826.31
2023-03-08T09:00:54.724Z,97825.91
2023-03-08T09:03:22.325Z,97817.78
2023-03-08T09:05:49.954Z,97816.75
2023-03-08T09:08:17.643Z,97819.84
2023-03-08T09:10:45.284Z,97813.16
2023-03-08T09:13:13.677Z,97816.34
2023-03-08T09:15:42.690Z,97803.91
2023-03-08T09:18:10.384Z,97803.91
2023-03-08T09:20:38.422Z,97814.88
2023-03-08T09:23:06.100Z,97814.88
2023-03-08T09:25:33.766Z,97805.56
2023-03-08T09:28:01.933Z,97807.59
2023-03-08T09:30:30.340Z,97785.91
2023-03-08T09:32:59.681Z,97780.50
2023-03-08T09:35:27.328Z,97783.22
2023-03-08T09:37:56.242Z,97777.41
2023-03-08T09:40:26.964Z,97775.13
2023-03-08T09:43:05.024Z,97776.72
2023-03-08T09:45:33.427Z,97765.84
2023-03-08T09:48:10.913Z,97762.75
2023-03-08T09:50:44.889Z,97761.56
2023-03-08T09:53:21.867Z,97750.31
2023-03-08T09:55:54.569Z,97749.91
2023-03-08T09:58:33.040Z,97753.41
2023-03-08T10:01:10.960Z,97756.97
2023-03-08T10:04:10.197Z,97751.91
2023-03-08T10:06:46.414Z,97732.84
2023-03-08T10:09:24.874Z,97733.25
2023-03-08T10:11:56.944Z,97726.25
2023-03-08T10:14:31.057Z,97711.44
2023-03-08T10:17:04.646Z,97707.94
2023-03-08T10:19:39.650Z,97700.16
2023-03-08T10:22:15.192Z,97696.69
2023-03-08T10:24:49.322Z,97704.06
2023-03-08T10:27:22.236Z,97690.06
2023-03-08T10:29:54.665Z,97704.06
2023-03-08T10:32:22.663Z,97697.03
2023-03-08T10:34:51.728Z,97686.19
2023-03-08T10:37:22.782Z,97701.72
2023-03-08T10:39:53.273Z,97692.78
2023-03-08T10:42:23.876Z,97687.66
2023-03-08T10:44:58.013Z,97693.84
2023-03-08T10:47:27.387Z,97677.19
2023-03-08T10:50:13.811Z,97684.84
2023-03-08T10:52:42.277Z,97685.66
2023-03-08T10:55:13.485Z,97639.75
2023-03-08T10:57:42.741Z,97647.22
2023-03-08T11:00:29.965Z,97674.38
2023-03-08T11:03:13.962Z,97671.31
2023-03-08T11:05:52.325Z,97665.03
2023-03-08T11:08:23.047Z,97654.06
2023-03-08T11:11:01.226Z,97646.97
2023-03-08T11:13:32.530Z,97654.00
2023-03-08T11:16:09.592Z,97648.19
2023-03-08T11:18:52.927Z,97648.22
2023-03-08T11:21:33.598Z,97661.09
2023-03-08T11:24:18.496Z,97616.91
2023-03-08T11:26:59.774Z,97656.44
2023-03-08T11:29:42.535Z,97658.00
2023-03-08T11:32:21.602Z,97646.28
2023-03-08T11:35:01.287Z,97643.13
2023-03-08T11:37:39.464Z,97645.50
2023-03-08T11:40:24.822Z,97660.66
2023-03-08T11:43:06.146Z,97639.69
2023-03-08T11:45:40.354Z,97635.31
2023-03-08T11:48:37.423Z,97634.47
2023-03-08T11:51:10.575Z,97624.34
2023-03-08T11:53:54.689Z,97625.16
2023-03-08T11:56:41.482Z,97598.84
2023-03-08T11:59:16.513Z,97632.09
2023-03-08T12:01:49.840Z,97629.34
2023-03-08T12:04:22.602Z,97628.97
2023-03-08T12:06:50.589Z,97619.25
2023-03-08T12:09:26.942Z,97624.63
2023-03-08T12:11:59.214Z,97621.59
2023-03-08T12:14:31.080Z,97618.34
2023-03-08T12:17:05.580Z,97614.88
2023-03-08T12:19:42.674Z,97611.31
2023-03-08T12:22:24.272Z,97616.66
2023-03-08T12:25:00.195Z,97621.66
2023-03-08T12:27:33.486Z,97620.38
2023-03-08T12:30:14.434Z,97616.84
2023-03-08T12:32:44.416Z,97623.06
2023-03-08T12:35:27.861Z,97618.81
2023-03-08T12:38:00.744Z,97598.72
2023-03-08T12:40:39.777Z,97631.47
2023-03-08T12:43:11.270Z,97572.38
2023-03-08T12:45:39.915Z,97579.19
2023-03-08T12:48:19.965Z,97551.34
2023-03-08T12:51:00.308Z,97591.91
2023-03-08T12:53:35.050Z,97596.91
2023-03-08T12:56:08.215Z,97570.47
2023-03-08T12:58:40.113Z,97595.78
2023-03-08T13:01:24.479Z,97587.38
2023-03-08T13:03:52.142Z,97595.03
2023-03-08T13:06:45.784Z,97588.88
2023-03-08T13:09:22.207Z,97595.97
2023-03-08T13:12:01.123Z,97601.22
2023-03-08T13:14:39.900Z,97605.81
2023-03-08T13:17:35.961Z,97589.75
2023-03-08T13:20:13.119Z,97592.31
2023-03-08T13:22:50.912Z,97593.88
2023-03-08T13:25:32.252Z,97589.06
2023-03-08T13:28:05.468Z,97587.00
2023-03-08T13:30:36.359Z,97574.53
2023-03-08T13:33:09.492Z,97590.00
2023-03-08T13:35:37.244Z,97587.63
2023-03-08T13:38:05.164Z,97525.53
2023-03-08T13:40:33.379Z,97584.50
2023-03-08T13:43:08.446Z,97551.66
2023-03-08T13:45:36.468Z,97586.28
2023-03-08T13:48:09.742Z,97595.91
2023-03-08T13:50:40.366Z,97600.78
2023-03-08T13:53:11.813Z,97597.75
2023-03-08T13:55:43.156Z,97576.88
2023-03-08T13:58:23.075Z,97596.78
2023-03-08T14:01:01.974Z,97588.56
2023-03-08T14:03:31.434Z,97580.69
2023-03-08T14:05:59.788Z,97566.81
2023-03-08T14:08:28.576Z,97576.94
2023-03-08T14:11:00.601Z,97559.38
2023-03-08T14:13:33.289Z,97577.16
2023-03-08T14:16:03.433Z,97567.28
2023-03-08T14:18:33.697Z,97572.97
2023-03-08T14:21:07.922Z,97582.97
2023-03-08T14:23:40.266Z,97561.69
2023-03-08T14:26:22.934Z,97587.69
2023-03-08T14:29:04.315Z,97589.94
2023-03-08T14:31:32.139Z,97574.03
2023-03-08T14:34:02.288Z,97561.94
2023-03-08T14:36:32.745Z,97575.00
2023-03-08T14:39:01.181Z,97561.63
2023-03-08T14:41:34.846Z,97565.28
2023-03-08T14:44:05.250Z,97552.66
2023-03-08T14:46:32.976Z,97548.16
2023-03-08T14:49:03.063Z,97537.75
2023-03-08T14:51:37.563Z,97537.38
2023-03-08T14:54:08.281Z,97536.94
2023-03-08T14:56:35.942Z,97538.81
2023-03-08T14:59:05.868Z,97545.81
2023-03-08T15:01:36.115Z,97540.81
2023-03-08T15:04:06.195Z,97521.38
2023-03-08T15:06:37.084Z,97532.94
2023-03-08T15:09:09.158Z,97527.41
2023-03-08T15:11:37.549Z,97529.00
2023-03-08T15:14:06.490Z,97528.44
2023-03-08T15:16:34.126Z,97523.94
2023-03-08T15:19:01.740Z,97524.47
2023-03-08T15:21:30.572Z,97512.06
2023-03-08T15:23:59.120Z,97500.47
2023-03-08T15:26:28.590Z,97513.31
2023-03-08T15:28:56.412Z,97508.25
2023-03-08T15:31:25.515Z,97505.69
2023-03-08T15:33:53.209Z,97516.75
2023-03-08T15:36:21.183Z,97509.22
2023-03-08T15:38:49.447Z,97515.81
2023-03-08T15:41:18.085Z,97522.63
2023-03-08T15:43:45.743Z,97522.44
2023-03-08T15:46:14.337Z,97505.22
2023-03-08T15:48:45.424Z,97508.81
2023-03-08T15:51:19.134Z,97497.22
2023-03-08T15:53:46.879Z,97490.13
2023-03-08T15:56:14.568Z,97503.28
2023-03-08T15:58:42.700Z,97505.78
2023-03-08T16:01:11.865Z,97494.72
2023-03-08T16:03:39.709Z,97503.56
2023-03-08T16:06:11.642Z,97512.06
2023-03-08T16:08:40.905Z,97505.53
2023-03-08T16:11:08.858Z,97505.22
2023-03-08T16:13:36.729Z,97502.22
2023-03-08T16:16:06.566Z,97492.38
2023-03-08T16:18:36.222Z,97480.44
2023-03-08T16:21:07.853Z,97472.25
2023-03-08T16:23:37.144Z,97476.22
2023-03-08T16:26:15.356Z,97482.00
2023-03-08T16:28:45.527Z,97499.31
2023-03-08T16:31:14.218Z,97502.75
2023-03-08T16:33:42.008Z,97489.44
2023-03-08T16:36:10.022Z,97491.50
2023-03-08T16:38:39.702Z,97504.13
2023-03-08T16:41:13.340Z,97506.38
2023-03-08T16:43:48.832Z,97511.31
2023-03-08T16:46:17.717Z,97496.09
2023-03-08T16:48:45.469Z,97505.44
2023-03-08T16:51:15.545Z,97519.75
2023-03-08T16:53:44.765Z,97512.09
2023-03-08T16:56:18.406Z,97505.09
2023-03-08T16:58:46.163Z,97520.44
2023-03-08T17:01:14.657Z,97510.75
2023-03-08T17:03:42.389Z,97502.97
2023-03-08T17:06:11.743Z,97491.44
2023-03-08T17:08:39.721Z,97488.47
2023-03-08T17:11:15.752Z,97485.66
2023-03-08T17:13:43.708Z,97499.53
2023-03-08T17:16:14.364Z,97495.41
2023-03-08T17:18:42.015Z,97511.59
2023-03-08T17:21:09.747Z,97505.19
2023-03-08T17:23:37.510Z,97494.53
2023-03-08T17:26:05.863Z,97499.03
2023-03-08T17:28:35.352Z,97485.47
2023-03-08T17:31:07.645Z,97489.78
2023-03-08T17:33:35.973Z,97500.28
2023-03-08T17:36:05.143Z,97490.88
2023-03-08T17:38:33.632Z,97516.84
2023-03-08T17:41:04.625Z,97517.34
2023-03-08T17:43:32.334Z,97525.75
2023-03-08T17:46:03.189Z,97518.97
2023-03-08T17:48:31.545Z,97513.41
2023-03-08T17:51:02.572Z,97515.81
2023-03-08T17:53:30.405Z,97518.97
2023-03-08T17:56:00.147Z,97527.47
2023-03-08T17:58:28.375Z,97524.38
2023-03-08T18:00:56.005Z,97524.91
2023-03-08T18:03:25.164Z,97508.75
2023-03-08T18:05:53.933Z,97515.13
2023-03-08T18:08:21.660Z,97510.56
2023-03-08T18:10:49.456Z,97502.06
2023-03-08T18:13:17.131Z,97499.59
2023-03-08T18:15:44.790Z,97501.00
2023-03-08T18:18:12.450Z,97503.63
2023-03-08T18:20:41.420Z,97514.84
2023-03-08T18:23:09.176Z,97517.59
2023-03-08T18:25:39.009Z,97519.06
2023-03-08T18:28:06.785Z,97526.78
2023-03-08T18:30:34.489Z,97521.63
2023-03-08T18:33:02.157Z,97528.16
2023-03-08T18:35:29.902Z,97521.56
2023-03-08T18:37:58.876Z,97515.22
2023-03-08T18:40:29.361Z,97523.38
2023-03-08T18:42:57.405Z,97520.69
2023-03-08T18:45:25.052Z,97516.56
2023-03-08T18:47:53.188Z,97518.03
2023-03-08T18:50:21.739Z,97512.13
2023-03-08T18:52:49.409Z,97519.94
2023-03-08T18:55:18.655Z,97523.38
2023-03-08T18:57:46.332Z,97526.19
2023-03-08T19:00:15.228Z,97535.53
2023-03-08T19:02:42.998Z,97529.88
2023-03-08T19:05:11.243Z,97530.59
2023-03-08T19:07:41.356Z,97529.41
2023-03-08T19:10:14.675Z,97524.44
2023-03-08T19:12:44.553Z,97522.47
2023-03-08T19:15:12.474Z,97523.31
2023-03-08T19:17:40.234Z,97529.59
2023-03-08T19:20:09.578Z,97533.66
2023-03-08T19:22:37.850Z,97550.53
2023-03-08T19:25:06.108Z,97549.09
2023-03-08T19:27:34.252Z,97548.53
2023-03-08T19:30:03.329Z,97545.66
2023-03-08T19:32:31.144Z,97543.84
2023-03-08T19:34:58.830Z,97543.84
2023-03-08T19:37:26.472Z,97545.81
2023-03-08T19:39:54.401Z,97544.75
2023-03-08T19:42:22.146Z,97549.75
2023-03-08T19:44:50.777Z,97561.69
2023-03-08T19:47:20.923Z,97553.25
2023-03-08T19:49:49.485Z,97535.97
2023-03-08T19:52:17.326Z,97539.91
2023-03-08T19:54:45.414Z,97536.13
2023-03-08T19:57:13.425Z,97550.25
2023-03-08T19:59:41.162Z,97538.94
2023-03-08T20:02:09.895Z,97533.22
2023-03-08T20:04:38.845Z,97537.50
2023-03-08T20:07:06.595Z,97546.16
2023-03-08T20:09:34.296Z,97533.78
2023-03-08T20:12:01.957Z,97536.19
2023-03-08T20:14:29.825Z,97529.88
2023-03-08T20:16:58.945Z,97475.66
2023-03-08T20:19:26.639Z,97521.63
2023-03-08T20:21:55.644Z,97532.69
2023-03-08T20:24:24.128Z,97523.34
2023-03-08T20:26:51.921Z,97510.56
2023-03-08T20:29:19.822Z,97529.09
2023-03-08T20:31:48.159Z,97539.53
2023-03-08T20:34:16.084Z,97530.91
2023-03-08T20:36:44.271Z,97525.06
2023-03-08T20:39:13.579Z,97530.38
2023-03-08T20:41:41.545Z,97523.84
2023-03-08T20:44:11.958Z,97520.44
2023-03-08T20:46:39.682Z,97521.38
2023-03-08T20:49:07.379Z,97529.63
2023-03-08T20:51:36.272Z,97532.63
2023-03-08T20:54:06.042Z,97524.03
2023-03-08T20:56:35.065Z,97532.28
2023-03-08T20:59:02.905Z,97521.31
2023-03-08T21:01:33.370Z,97524.75
2023-03-08T21:04:02.037Z,97532.28
2023-03-08T21:06:31.776Z,97522.69
2023-03-08T21:09:00.283Z,97520.28
2023-03-08T21:11:28.457Z,97522.41
2023-03-08T21:13:57.647Z,97528.56
2023-03-08T21:16:26.891Z,97494.13
2023-03-08T21:18:56.257Z,97504.84
2023-03-08T21:21:27.164Z,97499.38
2023-03-08T21:23:55.899Z,97497.66
2023-03-08T21:26:25.616Z,97503.56
2023-03-08T21:28:53.833Z,97486.75
2023-03-08T21:31:23.341Z,97465.94
2023-03-08T21:33:51.520Z,97471.59
2023-03-08T21:36:19.218Z,97465.16
2023-03-08T21:38:51.160Z,97464.88
2023-03-08T21:41:19.640Z,97473.91
2023-03-08T21:43:47.331Z,97481.69
2023-03-08T21:46:15.530Z,97476.22
2023-03-08T21:48:44.863Z,97492.66
2023-03-08T21:51:13.352Z,97493.28
2023-03-08T21:53:41.556Z,97495.25
2023-03-08T21:56:10.372Z,97497.81
2023-03-08T21:58:38.756Z,97491.56
2023-03-08T22:01:07.730Z,97476.97
2023-03-08T22:03:35.958Z,97476.41
2023-03-08T22:06:05.266Z,97484.50
2023-03-08T22:08:32.920Z,97482.88
2023-03-08T22:11:00.652Z,97487.75
2023-03-08T22:13:28.303Z,97484.78
2023-03-08T22:15:56.050Z,97478.75
2023-03-08T22:18:23.726Z,97478.75
2023-03-08T22:20:51.356Z,97472.75
2023-03-08T22:23:20.361Z,97461.09
2023-03-08T22:25:47.972Z,97469.25
2023-03-08T22:28:16.059Z,97470.44
2023-03-08T22:30:43.670Z,97461.94
2023-03-08T22:33:12.023Z,97463.84
2023-03-08T22:35:39.820Z,97451.56
2023-03-08T22:38:07.453Z,97463.00
2023-03-08T22:40:38.705Z,97448.84
2023-03-08T22:43:06.298Z,97449.78
2023-03-08T22:45:34.803Z,97443.94
2023-03-08T22:48:02.740Z,97400.25
2023-03-08T22:50:30.572Z,97422.66
2023-03-08T22:52:58.307Z,97418.28
2023-03-08T22:55:25.943Z,97417.28
2023-03-08T22:57:54.935Z,97427.59
2023-03-08T23:00:22.718Z,97410.88
2023-03-08T23:02:50.659Z,97400.38
2023-03-08T23:05:21.084Z,97389.91
2023-03-08T23:07:48.999Z,97388.06
2023-03-08T23:10:17.760Z,97375.00
2023-03-08T23:12:45.440Z,97373.38
2023-03-08T23:15:14.437Z,97378.63
2023-03-08T23:17:42.190Z,97371.38
2023-03-08T23:20:11.861Z,97364.47
2023-03-08T23:22:39.537Z,97334.13
2023-03-08T23:25:08.253Z,97351.53
2023-03-08T23:27:35.854Z,97350.44
2023-03-08T23:30:05.181Z,97331.28
2023-03-08T23:32:34.488Z,97329.75
2023-03-08T23:35:02.177Z,97321.06
2023-03-08T23:37:29.811Z,97324.25
2023-03-08T23:39:57.690Z,97339.97
2023-03-08T23:42:25.979Z,97347.78
2023-03-08T23:44:53.699Z,97345.13
2023-03-08T23:47:21.359Z,97359.09
2023-03-08T23:49:51.576Z,97333.59
2023-03-08T23:52:20.989Z,97344.13
2023-03-08T23:54:48.646Z,97353.38
2023-03-08T23:57:16.336Z,97361.19
2023-03-08T23:59:44.050Z,97366.63
